sensor_id;sensor_type;location;lat;lon;timestamp;pressure;altitude;pressure_sealevel;temperature;humidity
74708;BME280;63360;50.104;8.074;2022-12-20T00:00:58;97578.38;;;0.46;100.00
74708;BME280;63360;50.104;8.074;2022-12-20T00:03:25;97560.47;;;0.46;100.00
74708;BME280;63360;50.104;8.074;2022-12-20T00:05:51;97560.69;;;0.44;100.00
74708;BME280;63360;50.104;8.074;2022-12-20T00:08:18;97548.69;;;0.45;100.00
74708;BME280;63360;50.104;8.074;2022-12-20T00:10:44;97532.56;;;0.44;100.00
74708;BME280;63360;50.104;8.074;2022-12-20T00:13:11;97538.22;;;0.46;100.00
74708;BME280;63360;50.104;8.074;2022-12-20T00:15:38;97524.09;;;0.44;100.00
74708;BME280;63360;50.104;8.074;2022-12-20T00:18:04;97512.53;;;0.41;100.00
74708;BME280;63360;50.104;8.074;2022-12-20T00:20:31;97510.06;;;0.46;100.00
74708;BME280;63360;50.104;8.074;2022-12-20T00:22:58;97524.50;;;0.52;100.00
74708;BME280;63360;50.104;8.074;2022-12-20T00:25:24;97518.28;;;0.48;100.00
74708;BME280;63360;50.104;8.074;2022-12-20T00:27:50;97530.31;;;0.48;100.00
74708;BME280;63360;50.104;8.074;2022-12-20T00:30:18;97523.97;;;0.50;100.00
74708;BME280;63360;50.104;8.074;2022-12-20T00:32:45;97526.81;;;0.54;100.00
74708;BME280;63360;50.104;8.074;2022-12-20T00:35:12;97524.63;;;0.46;100.00
74708;BME280;63360;50.104;8.074;2022-12-20T00:37:38;97524.50;;;0.52;100.00
74708;BME280;63360;50.104;8.074;2022-12-20T00:40:05;97513.41;;;0.47;100.00
74708;BME280;63360;50.104;8.074;2022-12-20T00:42:32;97518.59;;;0.52;100.00
74708;BME280;63360;50.104;8.074;2022-12-20T00:44:58;97524.25;;;0.54;100.00
74708;BME280;63360;50.104;8.074;2022-12-20T00:47:25;97517.59;;;0.53;100.00
74708;BME280;63360;50.104;8.074;2022-12-20T00:49:51;97506.72;;;0.46;100.00
74708;BME280;63360;50.104;8.074;2022-12-20T00:52:18;97519.84;;;0.49;100.00
74708;BME280;63360;50.104;8.074;2022-12-20T00:54:44;97511.69;;;0.52;100.00
74708;BME280;63360;50.104;8.074;2022-12-20T00:57:11;97511.69;;;0.52;100.00
74708;BME280;63360;50.104;8.074;2022-12-20T00:59:37;97501.91;;;0.49;100.00
74708;BME280;63360;50.104;8.074;2022-12-20T01:02:03;97494.50;;;0.48;100.00
74708;BME280;63360;50.104;8.074;2022-12-20T01:04:30;97499.19;;;0.56;100.00
74708;BME280;63360;50.104;8.074;2022-12-20T01:06:56;97510.00;;;0.58;100.00
74708;BME280;63360;50.104;8.074;2022-12-20T01:09:23;97511.53;;;0.59;100.00
74708;BME280;63360;50.104;8.074;2022-12-20T01:11:49;97506.97;;;0.61;100.00
74708;BME280;63360;50.104;8.074;2022-12-20T01:14:15;97512.09;;;0.61;100.00
74708;BME280;63360;50.104;8.074;2022-12-20T01:16:46;97509.81;;;0.65;100.00
74708;BME280;63360;50.104;8.074;2022-12-20T01:19:14;97498.44;;;0.55;100.00
74708;BME280;63360;50.104;8.074;2022-12-20T01:21:41;97515.72;;;0.65;100.00
74708;BME280;63360;50.104;8.074;2022-12-20T01:24:15;97504.31;;;0.56;100.00
74708;BME280;63360;50.104;8.074;2022-12-20T01:26:42;97531.88;;;0.66;100.00
74708;BME280;63360;50.104;8.074;2022-12-20T01:29:09;97515.34;;;0.56;100.00
74708;BME280;63360;50.104;8.074;2022-12-20T01:31:36;97525.72;;;0.67;100.00
74708;BME280;63360;50.104;8.074;2022-12-20T01:34:02;97511.59;;;0.64;100.00
74708;BME280;63360;50.104;8.074;2022-12-20T01:36:31;97514.41;;;0.63;100.00
74708;BME280;63360;50.104;8.074;2022-12-20T01:39:00;97491.53;;;0.56;100.00
74708;BME280;63360;50.104;8.074;2022-12-20T01:41:29;97527.75;;;0.65;100.00
74708;BME280;63360;50.104;8.074;2022-12-20T01:44:02;97508.28;;;0.64;100.00
74708;BME280;63360;50.104;8.074;2022-12-20T01:46:31;97497.41;;;0.56;100.00
74708;BME280;63360;50.104;8.074;2022-12-20T01:51:29;97483.31;;;0.54;100.00
74708;BME280;63360;50.104;8.074;2022-12-20T01:54:08;97463.78;;;0.48;100.00
74708;BME280;63360;50.104;8.074;2022-12-20T01:56:36;97477.19;;;0.55;100.00
74708;BME280;63360;50.104;8.074;2022-12-20T01:59:05;97453.84;;;0.51;100.00
74708;BME280;63360;50.104;8.074;2022-12-20T02:01:33;97453.63;;;0.53;100.00
74708;BME280;63360;50.104;8.074;2022-12-20T02:04:00;97463.38;;;0.56;100.00
74708;BME280;63360;50.104;8.074;2022-12-20T02:06:26;97458.25;;;0.56;100.00
74708;BME280;63360;50.104;8.074;2022-12-20T02:08:56;97449.25;;;0.53;100.00
74708;BME280;63360;50.104;8.074;2022-12-20T02:14:35;97455.16;;;0.54;100.00
74708;BME280;63360;50.104;8.074;2022-12-20T02:32:18;97417.72;;;0.48;100.00
74708;BME280;63360;50.104;8.074;2022-12-20T02:34:47;97397.06;;;0.38;100.00
74708;BME280;63360;50.104;8.074;2022-12-20T02:37:14;97409.72;;;0.44;100.00
74708;BME280;63360;50.104;8.074;2022-12-20T02:39:41;97400.19;;;0.40;100.00
74708;BME280;63360;50.104;8.074;2022-12-20T02:42:14;97401.72;;;0.41;100.00
74708;BME280;63360;50.104;8.074;2022-12-20T02:44:50;97420.81;;;0.50;100.00
74708;BME280;63360;50.104;8.074;2022-12-20T02:47:52;97404.69;;;0.49;100.00
74708;BME280;63360;50.104;8.074;2022-12-20T02:50:26;97427.78;;;0.54;100.00
74708;BME280;63360;50.104;8.074;2022-12-20T02:52:53;97418.47;;;0.48;100.00
74708;BME280;63360;50.104;8.074;2022-12-20T02:55:25;97410.56;;;0.50;100.00
74708;BME280;63360;50.104;8.074;2022-12-20T02:58:05;97410.78;;;0.48;100.00
74708;BME280;63360;50.104;8.074;2022-12-20T03:00:39;97413.13;;;0.50;100.00
74708;BME280;63360;50.104;8.074;2022-12-20T03:03:09;97414.44;;;0.52;100.00
74708;BME280;63360;50.104;8.074;2022-12-20T03:05:50;97423.97;;;0.57;100.00
74708;BME280;63360;50.104;8.074;2022-12-20T03:08:19;97433.44;;;0.56;100.00
74708;BME280;63360;50.104;8.074;2022-12-20T03:10:46;97428.09;;;0.58;100.00
74708;BME280;63360;50.104;8.074;2022-12-20T03:13:12;97417.00;;;0.52;100.00
74708;BME280;63360;50.104;8.074;2022-12-20T03:15:39;97415.06;;;0.59;100.00
74708;BME280;63360;50.104;8.074;2022-12-20T03:18:05;97426.84;;;0.60;100.00
74708;BME280;63360;50.104;8.074;2022-12-20T03:20:32;97427.63;;;0.61;100.00
74708;BME280;63360;50.104;8.074;2022-12-20T03:22:58;97412.09;;;0.68;100.00
74708;BME280;63360;50.104;8.074;2022-12-20T03:25:24;97411.47;;;0.77;100.00
74708;BME280;63360;50.104;8.074;2022-12-20T03:27:51;97400.13;;;0.73;100.00
74708;BME280;63360;50.104;8.074;2022-12-20T03:30:17;97412.28;;;0.83;100.00
74708;BME280;63360;50.104;8.074;2022-12-20T03:32:44;97415.94;;;0.87;100.00
74708;BME280;63360;50.104;8.074;2022-12-20T03:35:10;97404.91;;;0.86;100.00
74708;BME280;63360;50.104;8.074;2022-12-20T03:37:37;97391.28;;;0.81;100.00
74708;BME280;63360;50.104;8.074;2022-12-20T03:40:04;97404.06;;;0.81;100.00
74708;BME280;63360;50.104;8.074;2022-12-20T03:42:31;97415.69;;;0.88;100.00
74708;BME280;63360;50.104;8.074;2022-12-20T03:44:57;97420.59;;;0.90;100.00
74708;BME280;63360;50.104;8.074;2022-12-20T03:47:24;97418.50;;;0.87;100.00
74708;BME280;63360;50.104;8.074;2022-12-20T03:49:50;97429.72;;;1.02;100.00
74708;BME280;63360;50.104;8.074;2022-12-20T03:52:17;97425.00;;;0.94;100.00
74708;BME280;63360;50.104;8.074;2022-12-20T03:54:44;97423.13;;;1.06;100.00
74708;BME280;63360;50.104;8.074;2022-12-20T03:57:10;97425.84;;;1.00;100.00
74708;BME280;63360;50.104;8.074;2022-12-20T03:59:37;97417.91;;;1.01;100.00
74708;BME280;63360;50.104;8.074;2022-12-20T04:02:03;97409.22;;;1.02;100.00
74708;BME280;63360;50.104;8.074;2022-12-20T04:04:30;97412.63;;;1.08;100.00
74708;BME280;63360;50.104;8.074;2022-12-20T04:06:56;97408.22;;;1.03;100.00
74708;BME280;63360;50.104;8.074;2022-12-20T04:09:23;97401.78;;;1.01;100.00
74708;BME280;63360;50.104;8.074;2022-12-20T04:11:49;97403.03;;;0.98;100.00
74708;BME280;63360;50.104;8.074;2022-12-20T04:14:16;97402.72;;;0.95;100.00
74708;BME280;63360;50.104;8.074;2022-12-20T04:16:42;97393.00;;;0.97;100.00
74708;BME280;63360;50.104;8.074;2022-12-20T04:19:09;97367.81;;;0.89;100.00
74708;BME280;63360;50.104;8.074;2022-12-20T04:21:37;97378.38;;;0.92;100.00
74708;BME280;63360;50.104;8.074;2022-12-20T04:24:04;97371.16;;;0.89;100.00
74708;BME280;63360;50.104;8.074;2022-12-20T04:26:30;97359.09;;;0.85;100.00
74708;BME280;63360;50.104;8.074;2022-12-20T04:28:57;97363.16;;;0.86;100.00
74708;BME280;63360;50.104;8.074;2022-12-20T04:31:23;97354.19;;;0.83;100.00
74708;BME280;63360;50.104;8.074;2022-12-20T04:33:50;97365.78;;;0.91;100.00
74708;BME280;63360;50.104;8.074;2022-12-20T04:36:17;97357.72;;;0.77;100.00
74708;BME280;63360;50.104;8.074;2022-12-20T04:38:44;97368.47;;;0.79;100.00
74708;BME280;63360;50.104;8.074;2022-12-20T04:41:10;97379.56;;;0.85;100.00
74708;BME280;63360;50.104;8.074;2022-12-20T04:43:52;97375.44;;;0.84;100.00
74708;BME280;63360;50.104;8.074;2022-12-20T04:46:19;97355.31;;;0.71;100.00
74708;BME280;63360;50.104;8.074;2022-12-20T04:48:46;97360.03;;;0.79;100.00
74708;BME280;63360;50.104;8.074;2022-12-20T04:51:28;97364.56;;;0.72;100.00
74708;BME280;63360;50.104;8.074;2022-12-20T04:53:55;97367.38;;;0.75;100.00
74708;BME280;63360;50.104;8.074;2022-12-20T04:56:26;97370.78;;;0.81;100.00
74708;BME280;63360;50.104;8.074;2022-12-20T04:58:55;97371.31;;;0.83;100.00
74708;BME280;63360;50.104;8.074;2022-12-20T05:01:22;97369.31;;;0.85;100.00
74708;BME280;63360;50.104;8.074;2022-12-20T05:03:50;97366.34;;;0.93;100.00
74708;BME280;63360;50.104;8.074;2022-12-20T05:06:16;97358.81;;;0.86;100.00
74708;BME280;63360;50.104;8.074;2022-12-20T05:08:43;97354.28;;;0.93;100.00
74708;BME280;63360;50.104;8.074;2022-12-20T05:11:10;97367.72;;;1.00;100.00
74708;BME280;63360;50.104;8.074;2022-12-20T05:13:37;97371.81;;;1.01;100.00
74708;BME280;63360;50.104;8.074;2022-12-20T05:16:04;97365.38;;;0.99;100.00
74708;BME280;63360;50.104;8.074;2022-12-20T05:18:31;97362.53;;;0.95;100.00
74708;BME280;63360;50.104;8.074;2022-12-20T05:20:59;97365.69;;;1.02;100.00
74708;BME280;63360;50.104;8.074;2022-12-20T05:23:44;97360.56;;;1.02;100.00
74708;BME280;63360;50.104;8.074;2022-12-20T05:26:32;97348.22;;;0.99;100.00
74708;BME280;63360;50.104;8.074;2022-12-20T05:28:59;97341.56;;;0.98;100.00
74708;BME280;63360;50.104;8.074;2022-12-20T05:31:26;97351.41;;;1.06;100.00
74708;BME280;63360;50.104;8.074;2022-12-20T05:33:53;97356.53;;;1.06;100.00
74708;BME280;63360;50.104;8.074;2022-12-20T05:36:19;97340.06;;;1.02;100.00
74708;BME280;63360;50.104;8.074;2022-12-20T05:38:46;97343.22;;;1.09;100.00
74708;BME280;63360;50.104;8.074;2022-12-20T05:41:12;97341.75;;;1.40;100.00
74708;BME280;63360;50.104;8.074;2022-12-20T05:43:39;97334.56;;;1.37;100.00
74708;BME280;63360;50.104;8.074;2022-12-20T05:46:05;97335.84;;;1.40;100.00
74708;BME280;63360;50.104;8.074;2022-12-20T05:48:32;97339.75;;;1.47;100.00
74708;BME280;63360;50.104;8.074;2022-12-20T05:50:59;97327.88;;;1.36;100.00
74708;BME280;63360;50.104;8.074;2022-12-20T05:53:27;97340.72;;;1.41;100.00
74708;BME280;63360;50.104;8.074;2022-12-20T05:55:53;97340.16;;;1.34;100.00
74708;BME280;63360;50.104;8.074;2022-12-20T05:58:20;97349.34;;;1.30;100.00
74708;BME280;63360;50.104;8.074;2022-12-20T06:00:47;97343.09;;;1.21;100.00
74708;BME280;63360;50.104;8.074;2022-12-20T06:03:13;97348.28;;;1.26;100.00
74708;BME280;63360;50.104;8.074;2022-12-20T06:05:44;97337.78;;;1.28;100.00
74708;BME280;63360;50.104;8.074;2022-12-20T06:08:11;97336.75;;;1.29;100.00
74708;BME280;63360;50.104;8.074;2022-12-20T06:10:39;97353.78;;;1.40;100.00
74708;BME280;63360;50.104;8.074;2022-12-20T06:13:08;97354.75;;;1.34;100.00
74708;BME280;63360;50.104;8.074;2022-12-20T06:15:35;97353.69;;;1.30;100.00
74708;BME280;63360;50.104;8.074;2022-12-20T06:18:01;97339.28;;;1.23;100.00
74708;BME280;63360;50.104;8.074;2022-12-20T06:20:28;97344.66;;;1.22;100.00
74708;BME280;63360;50.104;8.074;2022-12-20T06:22:55;97348.22;;;1.21;100.00
74708;BME280;63360;50.104;8.074;2022-12-20T06:25:21;97342.25;;;1.15;100.00
74708;BME280;63360;50.104;8.074;2022-12-20T06:27:48;97333.03;;;1.14;100.00
74708;BME280;63360;50.104;8.074;2022-12-20T06:30:14;97336.31;;;1.10;100.00
74708;BME280;63360;50.104;8.074;2022-12-20T06:32:41;97345.25;;;1.07;100.00
74708;BME280;63360;50.104;8.074;2022-12-20T06:35:08;97339.53;;;1.00;100.00
74708;BME280;63360;50.104;8.074;2022-12-20T06:37:34;97332.59;;;0.96;100.00
74708;BME280;63360;50.104;8.074;2022-12-20T06:40:02;97334.59;;;0.94;100.00
74708;BME280;63360;50.104;8.074;2022-12-20T06:42:29;97348.69;;;0.96;100.00
74708;BME280;63360;50.104;8.074;2022-12-20T06:44:56;97357.22;;;1.02;100.00
74708;BME280;63360;50.104;8.074;2022-12-20T06:47:22;97349.34;;;1.30;100.00
74708;BME280;63360;50.104;8.074;2022-12-20T06:49:48;97332.13;;;1.26;100.00
74708;BME280;63360;50.104;8.074;2022-12-20T06:52:15;97335.97;;;1.28;100.00
74708;BME280;63360;50.104;8.074;2022-12-20T06:54:41;97342.63;;;1.24;100.00
74708;BME280;63360;50.104;8.074;2022-12-20T06:57:07;97344.19;;;1.25;100.00
74708;BME280;63360;50.104;8.074;2022-12-20T06:59:34;97337.50;;;1.24;100.00
74708;BME280;63360;50.104;8.074;2022-12-20T07:02:00;97338.22;;;1.19;100.00
74708;BME280;63360;50.104;8.074;2022-12-20T07:04:28;97326.72;;;1.22;100.00
74708;BME280;63360;50.104;8.074;2022-12-20T07:06:54;97325.72;;;1.28;100.00
74708;BME280;63360;50.104;8.074;2022-12-20T07:09:22;97329.56;;;1.26;100.00
74708;BME280;63360;50.104;8.074;2022-12-20T07:11:49;97321.38;;;1.29;100.00
74708;BME280;63360;50.104;8.074;2022-12-20T07:14:15;97310.78;;;1.20;100.00
74708;BME280;63360;50.104;8.074;2022-12-20T07:16:41;97318.34;;;1.32;100.00
74708;BME280;63360;50.104;8.074;2022-12-20T07:19:13;97330.47;;;1.41;100.00
74708;BME280;63360;50.104;8.074;2022-12-20T07:21:41;97321.16;;;1.57;100.00
74708;BME280;63360;50.104;8.074;2022-12-20T07:24:08;97330.34;;;1.53;100.00
74708;BME280;63360;50.104;8.074;2022-12-20T07:26:35;97319.25;;;1.47;100.00
74708;BME280;63360;50.104;8.074;2022-12-20T07:29:02;97324.69;;;1.51;100.00
74708;BME280;63360;50.104;8.074;2022-12-20T07:31:29;97315.09;;;1.41;100.00
74708;BME280;63360;50.104;8.074;2022-12-20T07:33:55;97313.63;;;1.45;100.00
74708;BME280;63360;50.104;8.074;2022-12-20T07:36:22;97300.44;;;1.37;100.00
74708;BME280;63360;50.104;8.074;2022-12-20T07:38:48;97308.16;;;1.37;100.00
74708;BME280;63360;50.104;8.074;2022-12-20T07:41:16;97318.69;;;1.40;100.00
74708;BME280;63360;50.104;8.074;2022-12-20T07:43:43;97309.44;;;1.39;100.00
74708;BME280;63360;50.104;8.074;2022-12-20T07:46:12;97299.94;;;1.35;100.00
74708;BME280;63360;50.104;8.074;2022-12-20T07:48:39;97288.13;;;1.34;100.00
74708;BME280;63360;50.104;8.074;2022-12-20T07:51:09;97303.44;;;1.29;100.00
74708;BME280;63360;50.104;8.074;2022-12-20T07:53:39;97294.47;;;1.26;100.00
74708;BME280;63360;50.104;8.074;2022-12-20T07:56:10;97290.91;;;1.27;100.00
74708;BME280;63360;50.104;8.074;2022-12-20T07:58:39;97297.31;;;1.30;100.00
74708;BME280;63360;50.104;8.074;2022-12-20T08:01:07;97298.09;;;1.30;100.00
74708;BME280;63360;50.104;8.074;2022-12-20T08:03:41;97291.41;;;1.29;100.00
74708;BME280;63360;50.104;8.074;2022-12-20T08:06:09;97273.19;;;1.26;100.00
74708;BME280;63360;50.104;8.074;2022-12-20T08:08:40;97289.16;;;1.33;100.00
74708;BME280;63360;50.104;8.074;2022-12-20T08:11:08;97293.50;;;1.32;100.00
74708;BME280;63360;50.104;8.074;2022-12-20T08:13:36;97275.56;;;1.32;100.00
74708;BME280;63360;50.104;8.074;2022-12-20T08:16:11;97281.16;;;1.29;100.00
74708;BME280;63360;50.104;8.074;2022-12-20T08:18:37;97287.19;;;1.45;100.00
74708;BME280;63360;50.104;8.074;2022-12-20T08:21:04;97278.69;;;1.39;100.00
74708;BME280;63360;50.104;8.074;2022-12-20T08:23:31;97277.44;;;1.42;100.00
74708;BME280;63360;50.104;8.074;2022-12-20T08:26:00;97258.97;;;1.40;100.00
74708;BME280;63360;50.104;8.074;2022-12-20T08:28:26;97274.38;;;1.45;100.00
74708;BME280;63360;50.104;8.074;2022-12-20T08:31:02;97264.41;;;1.43;100.00
74708;BME280;63360;50.104;8.074;2022-12-20T08:33:31;97276.22;;;1.49;100.00
74708;BME280;63360;50.104;8.074;2022-12-20T08:36:03;97259.78;;;1.45;100.00
74708;BME280;63360;50.104;8.074;2022-12-20T08:38:31;97261.88;;;1.48;100.00
74708;BME280;63360;50.104;8.074;2022-12-20T08:41:06;97276.75;;;1.51;100.00
74708;BME280;63360;50.104;8.074;2022-12-20T08:43:33;97281.13;;;1.51;100.00
74708;BME280;63360;50.104;8.074;2022-12-20T08:45:59;97289.81;;;1.50;100.00
74708;BME280;63360;50.104;8.074;2022-12-20T08:48:26;97297.00;;;1.53;100.00
74708;BME280;63360;50.104;8.074;2022-12-20T08:50:58;97275.69;;;1.47;100.00
74708;BME280;63360;50.104;8.074;2022-12-20T08:53:27;97293.94;;;1.51;100.00
74708;BME280;63360;50.104;8.074;2022-12-20T08:56:01;97293.16;;;1.50;100.00
74708;BME280;63360;50.104;8.074;2022-12-20T08:58:28;97272.09;;;1.43;100.00
74708;BME280;63360;50.104;8.074;2022-12-20T09:00:57;97277.47;;;1.47;100.00
74708;BME280;63360;50.104;8.074;2022-12-20T09:03:32;97275.94;;;1.46;100.00
74708;BME280;63360;50.104;8.074;2022-12-20T09:05:59;97268.97;;;1.41;100.00
74708;BME280;63360;50.104;8.074;2022-12-20T09:08:26;97273.38;;;1.46;100.00
74708;BME280;63360;50.104;8.074;2022-12-20T09:10:52;97277.22;;;1.43;100.00
74708;BME280;63360;50.104;8.074;2022-12-20T09:13:19;97269.56;;;1.48;100.00
74708;BME280;63360;50.104;8.074;2022-12-20T09:15:46;97260.03;;;1.44;100.00
74708;BME280;63360;50.104;8.074;2022-12-20T09:18:13;97277.03;;;1.55;100.00
74708;BME280;63360;50.104;8.074;2022-12-20T09:20:42;97266.34;;;1.63;100.00
74708;BME280;63360;50.104;8.074;2022-12-20T09:23:10;97258.63;;;1.63;100.00
74708;BME280;63360;50.104;8.074;2022-12-20T09:25:37;97262.81;;;1.74;100.00
74708;BME280;63360;50.104;8.074;2022-12-20T09:28:03;97265.16;;;1.75;100.00
74708;BME280;63360;50.104;8.074;2022-12-20T09:30:30;97262.47;;;1.97;100.00
74708;BME280;63360;50.104;8.074;2022-12-20T09:32:57;97271.78;;;2.08;100.00
74708;BME280;63360;50.104;8.074;2022-12-20T09:35:35;97263.28;;;2.03;100.00
74708;BME280;63360;50.104;8.074;2022-12-20T09:38:02;97263.31;;;2.08;100.00
74708;BME280;63360;50.104;8.074;2022-12-20T09:40:30;97253.13;;;2.18;100.00
74708;BME280;63360;50.104;8.074;2022-12-20T09:42:58;97249.88;;;2.37;100.00
74708;BME280;63360;50.104;8.074;2022-12-20T09:45:27;97236.78;;;2.34;100.00
74708;BME280;63360;50.104;8.074;2022-12-20T09:47:54;97251.66;;;2.37;100.00
74708;BME280;63360;50.104;8.074;2022-12-20T09:50:33;97242.50;;;2.56;100.00
74708;BME280;63360;50.104;8.074;2022-12-20T09:56:15;97225.28;;;2.47;100.00
74708;BME280;63360;50.104;8.074;2022-12-20T09:59:02;97234.00;;;2.56;100.00
74708;BME280;63360;50.104;8.074;2022-12-20T10:01:31;97239.94;;;2.61;100.00
74708;BME280;63360;50.104;8.074;2022-12-20T10:04:10;97238.41;;;2.60;100.00
74708;BME280;63360;50.104;8.074;2022-12-20T10:06:52;97230.72;;;2.60;100.00
74708;BME280;63360;50.104;8.074;2022-12-20T10:15:22;97243.88;;;2.84;100.00
74708;BME280;63360;50.104;8.074;2022-12-20T10:18:15;97237.44;;;2.71;100.00
74708;BME280;63360;50.104;8.074;2022-12-20T10:23:31;97239.19;;;2.61;100.00
74708;BME280;63360;50.104;8.074;2022-12-20T10:25:59;97223.22;;;2.54;100.00
74708;BME280;63360;50.104;8.074;2022-12-20T10:28:28;97239.41;;;2.54;100.00
74708;BME280;63360;50.104;8.074;2022-12-20T10:31:01;97230.69;;;2.50;100.00
74708;BME280;63360;50.104;8.074;2022-12-20T10:33:30;97214.50;;;2.44;100.00
74708;BME280;63360;50.104;8.074;2022-12-20T10:36:26;97225.81;;;2.54;100.00
74708;BME280;63360;50.104;8.074;2022-12-20T10:38:55;97217.56;;;2.47;100.00
74708;BME280;63360;50.104;8.074;2022-12-20T10:41:28;97215.50;;;2.43;100.00
74708;BME280;63360;50.104;8.074;2022-12-20T10:44:00;97212.16;;;2.43;100.00
74708;BME280;63360;50.104;8.074;2022-12-20T10:46:36;97215.78;;;2.52;100.00
74708;BME280;63360;50.104;8.074;2022-12-20T10:49:33;97215.78;;;2.52;100.00
74708;BME280;63360;50.104;8.074;2022-12-20T10:52:11;97203.69;;;2.42;100.00
74708;BME280;63360;50.104;8.074;2022-12-20T10:54:40;97205.22;;;2.43;100.00
74708;BME280;63360;50.104;8.074;2022-12-20T10:57:18;97204.22;;;2.50;100.00
74708;BME280;63360;50.104;8.074;2022-12-20T11:00:02;97206.31;;;2.53;100.00
74708;BME280;63360;50.104;8.074;2022-12-20T11:02:34;97203.97;;;2.56;100.00
74708;BME280;63360;50.104;8.074;2022-12-20T11:07:51;97203.00;;;2.67;100.00
74708;BME280;63360;50.104;8.074;2022-12-20T11:10:38;97200.44;;;2.72;100.00
74708;BME280;63360;50.104;8.074;2022-12-20T11:13:05;97175.75;;;2.61;100.00
74708;BME280;63360;50.104;8.074;2022-12-20T11:15:33;97200.72;;;2.76;100.00
74708;BME280;63360;50.104;8.074;2022-12-20T11:18:22;97198.16;;;2.81;100.00
74708;BME280;63360;50.104;8.074;2022-12-20T11:23:57;97184.81;;;2.89;100.00
74708;BME280;63360;50.104;8.074;2022-12-20T11:30:29;97169.41;;;2.99;100.00
74708;BME280;63360;50.104;8.074;2022-12-20T11:35:54;97153.72;;;2.95;100.00
74708;BME280;63360;50.104;8.074;2022-12-20T11:38:29;97155.03;;;2.98;100.00
74708;BME280;63360;50.104;8.074;2022-12-20T11:52:34;97133.69;;;3.23;100.00
74708;BME280;63360;50.104;8.074;2022-12-20T11:55:06;97130.59;;;3.21;100.00
74708;BME280;63360;50.104;8.074;2022-12-20T11:57:54;97128.28;;;3.29;100.00
74708;BME280;63360;50.104;8.074;2022-12-20T12:00:49;97135.72;;;3.41;100.00
74708;BME280;63360;50.104;8.074;2022-12-20T12:05:57;97133.94;;;3.41;100.00
74708;BME280;63360;50.104;8.074;2022-12-20T12:08:39;97114.41;;;3.30;100.00
74708;BME280;63360;50.104;8.074;2022-12-20T12:11:18;97107.44;;;3.41;100.00
74708;BME280;63360;50.104;8.074;2022-12-20T12:14:25;97086.13;;;3.40;100.00
74708;BME280;63360;50.104;8.074;2022-12-20T12:16:56;97094.31;;;3.47;100.00
74708;BME280;63360;50.104;8.074;2022-12-20T12:19:27;97096.41;;;3.40;100.00
74708;BME280;63360;50.104;8.074;2022-12-20T12:22:02;97104.34;;;3.49;100.00
74708;BME280;63360;50.104;8.074;2022-12-20T12:24:35;97098.69;;;3.47;100.00
74708;BME280;63360;50.104;8.074;2022-12-20T12:27:04;97103.31;;;3.55;100.00
74708;BME280;63360;50.104;8.074;2022-12-20T12:29:36;97095.84;;;3.58;100.00
74708;BME280;63360;50.104;8.074;2022-12-20T12:32:12;97089.06;;;3.88;100.00
74708;BME280;63360;50.104;8.074;2022-12-20T12:40:32;97071.06;;;4.37;100.00
74708;BME280;63360;50.104;8.074;2022-12-20T12:45:51;97068.25;;;4.72;100.00
74708;BME280;63360;50.104;8.074;2022-12-20T12:48:38;97070.69;;;4.87;100.00
74708;BME280;63360;50.104;8.074;2022-12-20T12:51:06;97067.19;;;5.07;100.00
74708;BME280;63360;50.104;8.074;2022-12-20T12:53:36;97063.59;;;5.08;100.00
74708;BME280;63360;50.104;8.074;2022-12-20T13:01:54;97062.19;;;5.44;100.00
74708;BME280;63360;50.104;8.074;2022-12-20T13:17:53;97077.63;;;5.49;100.00
74708;BME280;63360;50.104;8.074;2022-12-20T13:23:14;97070.53;;;5.60;100.00
74708;BME280;63360;50.104;8.074;2022-12-20T13:25:46;97069.03;;;5.59;100.00
74708;BME280;63360;50.104;8.074;2022-12-20T13:31:28;97052.75;;;5.58;100.00
74708;BME280;63360;50.104;8.074;2022-12-20T13:41:36;97053.97;;;5.66;100.00
74708;BME280;63360;50.104;8.074;2022-12-20T13:44:34;97066.81;;;5.71;100.00
74708;BME280;63360;50.104;8.074;2022-12-20T13:49:45;97041.84;;;5.90;100.00
74708;BME280;63360;50.104;8.074;2022-12-20T13:54:47;97033.09;;;5.86;100.00
74708;BME280;63360;50.104;8.074;2022-12-20T13:57:16;97035.63;;;5.91;100.00
74708;BME280;63360;50.104;8.074;2022-12-20T13:59:46;97027.69;;;5.87;100.00
74708;BME280;63360;50.104;8.074;2022-12-20T14:02:22;97039.97;;;5.95;100.00
74708;BME280;63360;50.104;8.074;2022-12-20T14:04:58;97028.09;;;5.94;100.00
74708;BME280;63360;50.104;8.074;2022-12-20T14:07:27;97033.28;;;6.13;100.00
74708;BME280;63360;50.104;8.074;2022-12-20T14:09:58;97029.03;;;6.03;100.00
74708;BME280;63360;50.104;8.074;2022-12-20T14:12:25;97016.94;;;5.99;100.00
74708;BME280;63360;50.104;8.074;2022-12-20T14:15:01;97027.75;;;6.01;100.00
74708;BME280;63360;50.104;8.074;2022-12-20T14:17:32;97028.47;;;6.06;100.00
74708;BME280;63360;50.104;8.074;2022-12-20T14:23:02;97029.78;;;6.23;100.00
74708;BME280;63360;50.104;8.074;2022-12-20T14:25:42;97033.75;;;6.34;100.00
74708;BME280;63360;50.104;8.074;2022-12-20T14:28:34;97029.09;;;6.17;100.00
74708;BME280;63360;50.104;8.074;2022-12-20T14:31:03;97020.22;;;6.04;100.00
74708;BME280;63360;50.104;8.074;2022-12-20T14:33:40;97023.78;;;6.08;100.00
74708;BME280;63360;50.104;8.074;2022-12-20T14:36:19;97019.09;;;6.10;100.00
74708;BME280;63360;50.104;8.074;2022-12-20T14:38:48;97017.44;;;6.01;100.00
74708;BME280;63360;50.104;8.074;2022-12-20T14:41:36;97012.66;;;5.89;100.00
74708;BME280;63360;50.104;8.074;2022-12-20T14:46:33;97015.56;;;5.83;100.00
74708;BME280;63360;50.104;8.074;2022-12-20T14:49:16;97007.38;;;5.76;100.00
74708;BME280;63360;50.104;8.074;2022-12-20T14:51:45;96993.84;;;5.65;100.00
74708;BME280;63360;50.104;8.074;2022-12-20T14:54:20;97001.94;;;5.59;100.00
74708;BME280;63360;50.104;8.074;2022-12-20T14:57:10;96996.06;;;5.53;100.00
74708;BME280;63360;50.104;8.074;2022-12-20T14:59:37;96997.94;;;5.47;100.00
74708;BME280;63360;50.104;8.074;2022-12-20T15:02:34;96994.66;;;5.42;100.00
74708;BME280;63360;50.104;8.074;2022-12-20T15:10:42;96993.53;;;5.24;100.00
74708;BME280;63360;50.104;8.074;2022-12-20T15:13:15;96995.63;;;5.22;100.00